Time;durP1;ratioP1;P1;durP2;ratioP2;P2;SDS_P1;SDS_P2;PMS_P1;PMS_P2;Temp;Humidity;BMP_temperature;BMP_pressure;BME280_temperature;BME280_humidity;BME280_pressure;Samples;Min_cycle;Max_cycle;Signal;HPM_P1;HPM_P2
2023/07/16 00:01:57;;;;;;;1.47;0.90;;;20.10;98.20;;;;;;4929255;29;20472;-80
2023/07/16 00:04:24;;;;;;;1.47;0.90;;;20.10;98.20;;;;;;4928405;29;20475;-81
2023/07/16 00:06:52;;;;;;;1.50;0.90;;;20.00;98.20;;;;;;4919407;29;20472;-81
2023/07/16 00:09:19;;;;;;;1.50;0.90;;;20.00;98.20;;;;;;4928991;29;20507;-83
2023/07/16 00:11:45;;;;;;;1.43;0.90;;;19.90;98.20;;;;;;4925652;29;20820;-82
2023/07/16 00:14:12;;;;;;;1.50;0.90;;;19.90;98.20;;;;;;4924258;29;20449;-81
2023/07/16 00:16:39;;;;;;;1.50;0.90;;;19.80;98.20;;;;;;4925679;29;20492;-84
2023/07/16 00:19:06;;;;;;;1.43;0.90;;;19.80;98.20;;;;;;4927021;29;20487;-82
2023/07/16 00:21:33;;;;;;;1.47;0.90;;;19.70;98.20;;;;;;4926106;29;20468;-81
2023/07/16 00:24:01;;;;;;;1.40;0.90;;;19.70;98.20;;;;;;4926438;29;20473;-82
2023/07/16 00:26:28;;;;;;;1.50;0.90;;;19.70;98.20;;;;;;4923192;29;20465;-81
2023/07/16 00:28:54;;;;;;;1.47;0.90;;;19.60;98.20;;;;;;4922887;29;20800;-82
2023/07/16 00:31:21;;;;;;;1.47;0.90;;;19.60;98.20;;;;;;4916757;29;20467;-80
2023/07/16 00:33:48;;;;;;;1.50;0.90;;;19.60;98.20;;;;;;4926593;29;20475;-82
2023/07/16 00:36:15;;;;;;;1.43;0.90;;;19.50;98.20;;;;;;4923516;29;20472;-83
2023/07/16 00:38:42;;;;;;;1.47;0.90;;;19.50;98.20;;;;;;4926399;29;20476;-81
2023/07/16 00:41:10;;;;;;;1.50;0.93;;;19.50;98.20;;;;;;4924960;29;20489;-81
2023/07/16 00:43:37;;;;;;;1.47;0.90;;;19.50;98.20;;;;;;4918374;29;20472;-78
2023/07/16 00:46:04;;;;;;;1.50;0.97;;;19.50;98.20;;;;;;4928640;29;20543;-82
2023/07/16 00:48:31;;;;;;;1.43;0.90;;;19.50;98.20;;;;;;4930717;29;20495;-83
2023/07/16 00:50:58;;;;;;;1.43;0.90;;;19.50;98.20;;;;;;4923110;29;20518;-82
2023/07/16 00:53:24;;;;;;;1.87;1.67;;;19.50;98.20;;;;;;4920710;29;20468;-81
2023/07/16 00:55:52;;;;;;;1.47;0.90;;;19.50;98.20;;;;;;4920534;29;20460;-82
2023/07/16 00:58:20;;;;;;;1.50;0.90;;;19.50;98.20;;;;;;4923303;29;20488;-81
2023/07/16 01:00:47;;;;;;;1.50;0.90;;;19.50;98.20;;;;;;4927987;29;20475;-83
2023/07/16 01:03:15;;;;;;;1.43;0.90;;;19.50;98.20;;;;;;4926184;29;20460;-81
2023/07/16 01:05:48;;;;;;;1.50;0.90;;;19.50;98.20;;;;;;4923451;29;20465;-84
2023/07/16 01:08:19;;;;;;;1.50;0.90;;;19.40;98.20;;;;;;4927155;29;20506;-81
2023/07/16 01:10:45;;;;;;;1.50;0.90;;;19.40;98.20;;;;;;4923898;29;20495;-80
2023/07/16 01:13:13;;;;;;;1.50;0.90;;;19.40;98.20;;;;;;4923188;29;20467;-81
2023/07/16 01:15:41;;;;;;;1.50;1.00;;;19.30;98.20;;;;;;4927448;29;20467;-81
2023/07/16 01:18:07;;;;;;;1.47;0.90;;;19.30;98.20;;;;;;4922027;29;20488;-80
2023/07/16 01:20:34;;;;;;;1.50;1.00;;;19.30;98.20;;;;;;4922363;29;20493;-81
2023/07/16 01:23:26;;;;;;;1.43;0.90;;;19.30;98.20;;;;;;4927593;29;20464;-81
2023/07/16 01:26:07;;;;;;;1.50;0.90;;;19.30;98.20;;;;;;4920217;29;20464;-81
2023/07/16 01:28:49;;;;;;;1.50;0.90;;;19.20;98.20;;;;;;4923739;29;20496;-81
2023/07/16 01:31:18;;;;;;;1.50;0.90;;;19.10;98.20;;;;;;4921551;29;20830;-81
2023/07/16 01:33:46;;;;;;;1.50;1.00;;;19.10;98.20;;;;;;4923228;29;20962;-83
2023/07/16 01:36:13;;;;;;;1.50;0.90;;;19.00;98.20;;;;;;4914496;29;20567;-80
2023/07/16 01:38:40;;;;;;;1.50;0.90;;;19.00;98.20;;;;;;4930091;29;20483;-81
2023/07/16 01:41:07;;;;;;;1.50;1.00;;;19.00;98.20;;;;;;4930731;29;22410;-82
2023/07/16 01:43:34;;;;;;;1.50;0.90;;;19.00;98.20;;;;;;4925081;29;20480;-80
2023/07/16 01:46:01;;;;;;;1.50;0.90;;;19.00;98.20;;;;;;4918486;29;20472;-81
2023/07/16 01:48:33;;;;;;;1.50;0.90;;;19.00;98.20;;;;;;4926453;29;20700;-82
2023/07/16 01:50:59;;;;;;;1.50;0.90;;;18.90;98.20;;;;;;4930951;29;20464;-80
2023/07/16 01:53:26;;;;;;;1.50;0.90;;;18.90;98.20;;;;;;4932392;29;20468;-80
2023/07/16 01:55:53;;;;;;;1.50;0.90;;;18.90;98.20;;;;;;4931696;29;20471;-81
2023/07/16 01:58:20;;;;;;;1.50;1.00;;;18.80;98.20;;;;;;4925167;29;20978;-80
2023/07/16 02:00:48;;;;;;;1.50;0.90;;;18.80;98.20;;;;;;4929231;29;20461;-80
2023/07/16 02:03:14;;;;;;;1.50;0.90;;;18.80;98.20;;;;;;4924538;29;20500;-80
2023/07/16 02:05:43;;;;;;;1.50;0.90;;;18.80;98.20;;;;;;4919475;29;20468;-81
2023/07/16 02:08:09;;;;;;;1.50;0.90;;;18.70;98.20;;;;;;4930402;29;20492;-81
2023/07/16 02:10:36;;;;;;;1.50;0.90;;;18.70;98.20;;;;;;4922858;29;21054;-82
2023/07/16 02:13:03;;;;;;;1.50;0.90;;;18.70;98.20;;;;;;4924126;29;20478;-81
2023/07/16 02:15:30;;;;;;;1.50;0.90;;;18.70;98.20;;;;;;4919491;29;20986;-81
2023/07/16 02:17:56;;;;;;;1.50;0.90;;;18.70;98.20;;;;;;4921714;29;20500;-79
2023/07/16 02:20:23;;;;;;;1.50;0.90;;;18.70;98.20;;;;;;4924868;29;20485;-81
2023/07/16 02:22:51;;;;;;;1.50;0.90;;;18.60;98.20;;;;;;4928681;29;20834;-80
2023/07/16 02:25:18;;;;;;;1.50;0.90;;;18.60;98.20;;;;;;4928710;29;20953;-80
2023/07/16 02:27:45;;;;;;;1.50;0.97;;;18.50;98.20;;;;;;4935537;29;20945;-82
2023/07/16 02:30:12;;;;;;;1.50;0.90;;;18.50;98.20;;;;;;4928611;29;20492;-83
2023/07/16 02:32:39;;;;;;;1.50;0.90;;;18.50;98.20;;;;;;4931462;29;20472;-82
2023/07/16 02:35:06;;;;;;;1.50;0.90;;;18.50;98.20;;;;;;4933797;29;20472;-82
2023/07/16 02:37:33;;;;;;;1.50;0.93;;;18.50;98.20;;;;;;4933729;29;20460;-81
2023/07/16 02:40:01;;;;;;;1.50;1.00;;;18.40;98.20;;;;;;4934235;29;20471;-82
2023/07/16 02:42:28;;;;;;;1.50;0.90;;;18.40;98.20;;;;;;4928003;29;20467;-81
2023/07/16 02:44:55;;;;;;;1.50;0.90;;;18.40;98.20;;;;;;4933373;29;20460;-82
2023/07/16 02:47:22;;;;;;;1.50;0.90;;;18.40;98.20;;;;;;4933724;29;20543;-82
2023/07/16 02:49:51;;;;;;;1.50;0.90;;;18.40;98.20;;;;;;4931217;29;20867;-82
2023/07/16 02:52:18;;;;;;;1.50;0.90;;;18.30;98.20;;;;;;4927986;29;20523;-84
2023/07/16 02:54:45;;;;;;;1.50;1.00;;;18.30;98.20;;;;;;4931005;29;20506;-81
2023/07/16 02:57:13;;;;;;;1.50;0.90;;;18.30;98.20;;;;;;4929916;29;20491;-82
2023/07/16 02:59:40;;;;;;;1.50;0.90;;;18.30;98.20;;;;;;4935188;29;20495;-80
2023/07/16 03:02:07;;;;;;;1.50;0.90;;;18.20;98.20;;;;;;4932208;29;20471;-83
2023/07/16 03:04:34;;;;;;;1.50;0.90;;;18.20;98.20;;;;;;4935303;29;20470;-83
2023/07/16 03:07:00;;;;;;;1.50;1.00;;;18.20;98.20;;;;;;4929843;29;20467;-83
2023/07/16 03:09:27;;;;;;;1.47;0.90;;;18.10;98.20;;;;;;4929327;29;20866;-83
2023/07/16 03:11:54;;;;;;;1.50;0.90;;;18.10;98.20;;;;;;4932826;29;20464;-81
2023/07/16 03:14:22;;;;;;;1.50;0.90;;;18.10;98.20;;;;;;4929837;29;20470;-83
2023/07/16 03:16:48;;;;;;;1.50;0.90;;;18.10;98.20;;;;;;4927438;29;20471;-82
2023/07/16 03:19:15;;;;;;;1.50;1.00;;;18.10;98.20;;;;;;4934141;29;20867;-84
2023/07/16 03:21:42;;;;;;;1.50;1.00;;;18.10;98.20;;;;;;4938182;29;20472;-79
2023/07/16 03:24:09;;;;;;;1.50;0.90;;;18.00;98.20;;;;;;4926136;29;20467;-81
2023/07/16 03:26:35;;;;;;;1.50;0.90;;;18.00;98.20;;;;;;4931734;29;20476;-83
2023/07/16 03:29:02;;;;;;;1.50;0.90;;;18.00;98.20;;;;;;4930211;29;20499;-81
2023/07/16 03:31:30;;;;;;;2.33;2.13;;;18.00;98.20;;;;;;4932498;29;20475;-83
2023/07/16 03:33:57;;;;;;;1.50;0.90;;;17.90;98.20;;;;;;4932262;29;20472;-85
2023/07/16 03:36:24;;;;;;;1.50;0.90;;;17.90;98.20;;;;;;4927808;29;20472;-80
2023/07/16 03:38:51;;;;;;;1.50;1.00;;;17.90;98.20;;;;;;4931017;29;20549;-82
2023/07/16 03:41:17;;;;;;;1.50;1.00;;;17.90;98.20;;;;;;4932878;29;20844;-83
2023/07/16 03:43:44;;;;;;;1.50;0.90;;;17.90;98.20;;;;;;4931200;29;20476;-81
2023/07/16 03:46:11;;;;;;;1.50;0.90;;;17.80;98.20;;;;;;4930466;29;20480;-84
2023/07/16 03:48:39;;;;;;;1.50;1.00;;;17.80;98.20;;;;;;4929654;29;20525;-82
2023/07/16 03:51:06;;;;;;;1.50;0.90;;;17.80;98.20;;;;;;4925365;29;20473;-83
2023/07/16 03:53:32;;;;;;;1.50;0.90;;;17.80;98.20;;;;;;4924447;29;20467;-85
2023/07/16 03:55:59;;;;;;;1.50;0.90;;;17.80;98.20;;;;;;4923758;29;20471;-81
2023/07/16 03:58:27;;;;;;;1.50;0.90;;;17.80;98.20;;;;;;4923600;29;20480;-81
2023/07/16 04:00:54;;;;;;;1.50;1.00;;;17.80;98.20;;;;;;4921074;29;20465;-82
2023/07/16 04:03:21;;;;;;;1.50;1.00;;;17.80;98.20;;;;;;4925779;29;20524;-83
2023/07/16 04:05:49;;;;;;;1.50;0.90;;;17.80;98.20;;;;;;4925707;29;20472;-80
2023/07/16 04:08:16;;;;;;;1.50;0.90;;;17.70;98.20;;;;;;4924166;29;20488;-83
2023/07/16 04:10:42;;;;;;;1.50;0.90;;;17.70;98.20;;;;;;4932440;29;20491;-82
2023/07/16 04:13:09;;;;;;;1.50;0.90;;;17.70;98.20;;;;;;4922169;29;20468;-79
2023/07/16 04:15:36;;;;;;;1.50;1.00;;;17.70;98.20;;;;;;4921879;29;20472;-80
2023/07/16 04:18:03;;;;;;;1.50;1.00;;;17.70;98.20;;;;;;4926261;29;20487;-82
2023/07/16 04:20:30;;;;;;;1.50;0.90;;;17.70;98.20;;;;;;4926530;29;20471;-82
2023/07/16 04:22:58;;;;;;;1.50;1.00;;;17.70;98.20;;;;;;4921904;29;20469;-79
2023/07/16 04:25:25;;;;;;;1.50;1.00;;;17.70;98.20;;;;;;4921044;29;20479;-80
2023/07/16 04:27:52;;;;;;;1.50;1.00;;;17.70;98.20;;;;;;4919774;29;20467;-78
2023/07/16 04:30:19;;;;;;;1.50;0.90;;;17.70;98.20;;;;;;4918419;29;21264;-80
2023/07/16 04:32:45;;;;;;;1.50;1.00;;;17.70;98.20;;;;;;4925164;29;20468;-79
2023/07/16 04:35:12;;;;;;;1.50;1.00;;;17.80;98.20;;;;;;4922771;29;20495;-80
2023/07/16 04:37:39;;;;;;;1.50;0.90;;;17.70;98.20;;;;;;4917653;29;20627;-79
2023/07/16 04:40:09;;;;;;;1.50;0.90;;;17.80;98.20;;;;;;4922262;29;20478;-79
2023/07/16 04:42:36;;;;;;;1.50;0.90;;;17.80;98.20;;;;;;4921465;29;20522;-78
2023/07/16 04:45:02;;;;;;;1.50;1.00;;;17.80;98.20;;;;;;4920944;29;20468;-79
2023/07/16 04:47:29;;;;;;;1.50;1.00;;;17.80;98.20;;;;;;4927563;29;20471;-78
2023/07/16 04:49:56;;;;;;;1.50;0.90;;;17.80;98.20;;;;;;4925387;29;20988;-79
2023/07/16 04:52:23;;;;;;;1.50;0.90;;;17.90;98.20;;;;;;4925223;29;20518;-79
2023/07/16 04:54:49;;;;;;;1.50;1.00;;;18.00;98.20;;;;;;4926622;29;20467;-79
2023/07/16 04:57:18;;;;;;;1.47;0.90;;;18.00;98.20;;;;;;4923326;29;20464;-79
2023/07/16 04:59:44;;;;;;;1.43;0.90;;;18.10;98.20;;;;;;4927304;29;20785;-80
2023/07/16 05:02:12;;;;;;;1.50;0.90;;;18.20;98.20;;;;;;4928264;29;20479;-78
2023/07/16 05:04:38;;;;;;;1.50;0.93;;;18.40;98.20;;;;;;4925660;29;20491;-80
2023/07/16 05:07:05;;;;;;;1.50;0.90;;;18.50;98.20;;;;;;4927532;29;20472;-80
2023/07/16 05:09:33;;;;;;;1.50;1.00;;;18.60;98.20;;;;;;4931564;29;20529;-79
2023/07/16 05:12:00;;;;;;;1.50;0.90;;;18.80;98.20;;;;;;4926517;29;20460;-77
2023/07/16 05:14:29;;;;;;;1.50;0.90;;;18.90;98.20;;;;;;4923957;29;20542;-79
2023/07/16 05:16:56;;;;;;;1.50;0.90;;;19.00;98.20;;;;;;4923794;29;20579;-78
2023/07/16 05:19:23;;;;;;;1.50;0.90;;;19.10;98.20;;;;;;4925237;29;20498;-78
2023/07/16 05:21:50;;;;;;;1.50;0.90;;;19.20;98.20;;;;;;4926059;29;20479;-78
2023/07/16 05:24:17;;;;;;;1.50;0.93;;;19.30;98.20;;;;;;4928108;29;20838;-79
2023/07/16 05:26:43;;;;;;;1.50;0.90;;;19.50;98.20;;;;;;4926361;29;20463;-80
2023/07/16 05:29:10;;;;;;;1.50;1.00;;;19.70;98.20;;;;;;4925675;29;20915;-80
2023/07/16 05:31:38;;;;;;;1.50;0.90;;;19.80;98.20;;;;;;4924483;29;20862;-78
2023/07/16 05:34:05;;;;;;;1.50;0.90;;;20.00;98.20;;;;;;4924731;29;20476;-77
2023/07/16 05:36:32;;;;;;;1.50;0.90;;;20.10;98.20;;;;;;4925420;29;20469;-78
2023/07/16 05:38:58;;;;;;;1.43;0.90;;;20.30;98.20;;;;;;4926774;29;20484;-78
2023/07/16 05:41:25;;;;;;;1.50;0.90;;;20.40;97.50;;;;;;4926023;29;20567;-77
2023/07/16 05:43:52;;;;;;;1.50;0.97;;;20.50;96.70;;;;;;4924647;29;20468;-79
2023/07/16 05:46:19;;;;;;;1.50;0.90;;;20.60;97.00;;;;;;4922020;29;20476;-80
2023/07/16 05:48:47;;;;;;;1.50;0.90;;;20.70;96.50;;;;;;4925119;29;20575;-81
2023/07/16 05:51:14;;;;;;;1.50;0.90;;;20.70;95.40;;;;;;4925269;29;20502;-78
2023/07/16 05:53:40;;;;;;;1.43;0.90;;;20.80;94.80;;;;;;4926668;29;20480;-81
2023/07/16 05:56:07;;;;;;;1.50;0.90;;;20.80;93.80;;;;;;4928960;29;20463;-81
2023/07/16 05:58:34;;;;;;;1.50;0.90;;;20.90;95.30;;;;;;4923120;29;20509;-79
2023/07/16 06:01:01;;;;;;;1.50;0.90;;;21.00;95.00;;;;;;4924728;29;20468;-79
2023/07/16 06:03:28;;;;;;;1.50;0.90;;;21.00;93.70;;;;;;4926688;29;20467;-79
2023/07/16 06:05:56;;;;;;;1.50;0.90;;;21.10;94.00;;;;;;4928044;29;20470;-79
2023/07/16 06:08:24;;;;;;;1.50;0.90;;;21.20;93.60;;;;;;4927661;29;21066;-81
2023/07/16 06:10:53;;;;;;;1.50;1.00;;;21.30;93.30;;;;;;4928714;29;20492;-81
2023/07/16 06:13:20;;;;;;;1.50;1.00;;;21.50;93.10;;;;;;4927400;29;20505;-84
2023/07/16 06:15:48;;;;;;;1.50;1.00;;;21.60;91.80;;;;;;4925253;29;20468;-82
2023/07/16 06:18:15;;;;;;;1.70;1.20;;;21.70;91.60;;;;;;4930973;29;20793;-83
2023/07/16 06:20:44;;;;;;;1.50;0.90;;;21.90;91.20;;;;;;4931359;29;20472;-79
2023/07/16 06:23:13;;;;;;;1.50;0.93;;;22.00;89.80;;;;;;4931073;29;20912;-82
2023/07/16 06:25:44;;;;;;;1.50;0.90;;;22.00;88.80;;;;;;4932980;29;20510;-82
2023/07/16 06:28:11;;;;;;;2.80;2.60;;;22.10;89.40;;;;;;4930562;29;20500;-81
2023/07/16 06:30:47;;;;;;;1.50;0.90;;;22.10;89.00;;;;;;4933881;29;20499;-82
2023/07/16 06:33:17;;;;;;;1.50;0.90;;;22.20;88.40;;;;;;4931390;29;20467;-84
2023/07/16 06:35:48;;;;;;;1.50;0.90;;;22.30;88.00;;;;;;4933926;29;20829;-82
2023/07/16 06:38:16;;;;;;;1.50;0.90;;;22.40;87.70;;;;;;4932971;29;20484;-83
2023/07/16 06:40:48;;;;;;;1.50;0.90;;;22.40;86.90;;;;;;4931024;29;20984;-81
2023/07/16 06:43:21;;;;;;;1.47;0.90;;;22.50;86.50;;;;;;4931830;29;20543;-82
2023/07/16 06:45:50;;;;;;;1.50;0.90;;;22.60;85.80;;;;;;4927936;29;20524;-80
2023/07/16 06:48:17;;;;;;;1.50;0.90;;;22.60;86.10;;;;;;4928586;29;20575;-82
2023/07/16 06:50:44;;;;;;;1.50;0.90;;;22.70;86.20;;;;;;4930728;29;21103;-82
2023/07/16 06:53:15;;;;;;;1.50;1.00;;;22.90;86.80;;;;;;4930467;29;20467;-83
2023/07/16 06:55:43;;;;;;;1.50;0.90;;;23.00;86.00;;;;;;4931818;29;20464;-81
2023/07/16 06:58:16;;;;;;;1.50;0.90;;;23.10;84.50;;;;;;4928082;29;20496;-80
2023/07/16 07:00:43;;;;;;;1.50;0.90;;;23.10;83.20;;;;;;4929225;29;20511;-82
2023/07/16 07:06:03;;;;;;;1.47;0.90;;;23.20;83.50;;;;;;4923776;29;20459;-82
2023/07/16 07:08:33;;;;;;;1.50;0.90;;;23.30;83.60;;;;;;4927526;29;20487;-83
2023/07/16 07:11:01;;;;;;;1.70;1.43;;;23.50;82.80;;;;;;4923570;29;20671;-82
2023/07/16 07:13:29;;;;;;;1.43;0.80;;;23.50;82.10;;;;;;4926043;29;20635;-84
2023/07/16 07:15:56;;;;;;;1.50;0.80;;;23.60;83.30;;;;;;4922878;29;20468;-82
2023/07/16 07:18:23;;;;;;;1.47;0.87;;;23.70;82.40;;;;;;4927927;29;21090;-86
2023/07/16 07:20:51;;;;;;;1.50;0.87;;;23.80;80.80;;;;;;4919876;29;20496;-81
2023/07/16 07:23:20;;;;;;;1.47;0.90;;;23.80;80.20;;;;;;4921317;29;20468;-83
2023/07/16 07:25:56;;;;;;;1.50;0.90;;;23.80;80.10;;;;;;4926073;29;20474;-80
2023/07/16 07:28:25;;;;;;;1.50;0.90;;;23.90;80.90;;;;;;4931161;29;20538;-81
2023/07/16 07:30:52;;;;;;;1.47;0.80;;;23.90;80.70;;;;;;4921812;29;20484;-83
2023/07/16 07:33:19;;;;;;;1.50;0.90;;;23.90;80.30;;;;;;4928515;29;20486;-81
2023/07/16 07:35:46;;;;;;;1.50;0.90;;;24.10;80.30;;;;;;4927208;29;20476;-82
2023/07/16 07:38:16;;;;;;;1.50;0.90;;;24.10;80.00;;;;;;4921666;29;20599;-82
2023/07/16 07:40:46;;;;;;;1.47;0.90;;;24.30;80.60;;;;;;4924976;29;20474;-79
2023/07/16 07:43:13;;;;;;;1.50;1.00;;;24.50;79.50;;;;;;4920999;29;20464;-80
2023/07/16 07:45:41;;;;;;;1.50;0.90;;;24.60;78.20;;;;;;4922727;29;20630;-81
2023/07/16 07:48:08;;;;;;;1.50;0.80;;;24.70;79.60;;;;;;4922119;29;20498;-82
2023/07/16 07:50:35;;;;;;;1.50;1.00;;;24.90;77.60;;;;;;4923458;29;20491;-80
2023/07/16 07:53:02;;;;;;;1.47;0.90;;;25.00;78.00;;;;;;4923324;29;20579;-82
2023/07/16 07:55:30;;;;;;;1.47;0.83;;;25.10;76.90;;;;;;4928002;29;20467;-81
2023/07/16 07:57:57;;;;;;;1.50;0.90;;;25.10;77.10;;;;;;4922960;29;20934;-80
2023/07/16 08:00:24;;;;;;;1.47;0.80;;;25.20;77.20;;;;;;4924459;29;20467;-81
2023/07/16 08:02:53;;;;;;;1.50;0.90;;;25.20;76.10;;;;;;4924390;29;20482;-80
2023/07/16 08:05:26;;;;;;;1.43;0.90;;;25.20;75.90;;;;;;4926683;29;20475;-81
2023/07/16 08:07:56;;;;;;;1.47;0.87;;;25.10;75.10;;;;;;4925288;29;20464;-82
2023/07/16 08:10:23;;;;;;;1.47;0.87;;;25.10;75.90;;;;;;4924315;29;20492;-83
2023/07/16 08:12:53;;;;;;;1.50;0.90;;;25.10;76.30;;;;;;4925187;29;20464;-82
2023/07/16 08:15:20;;;;;;;1.43;0.80;;;25.20;75.70;;;;;;4925911;29;20981;-80
2023/07/16 08:17:52;;;;;;;1.50;0.87;;;25.30;75.10;;;;;;4923296;29;20787;-81
2023/07/16 08:23:12;;;;;;;1.43;0.90;;;25.50;73.30;;;;;;4921745;29;20466;-80
2023/07/16 08:25:45;;;;;;;1.47;0.80;;;25.50;73.80;;;;;;4926388;29;20701;-82
2023/07/16 08:28:15;;;;;;;1.50;0.80;;;25.60;72.80;;;;;;4927796;29;20492;-82
2023/07/16 08:30:49;;;;;;;1.50;0.80;;;25.60;73.20;;;;;;4927065;29;20488;-83
2023/07/16 08:33:18;;;;;;;1.47;0.90;;;25.60;72.60;;;;;;4925790;29;20512;-82
2023/07/16 08:35:48;;;;;;;1.47;0.80;;;25.60;73.00;;;;;;4923802;29;20627;-81
2023/07/16 08:38:23;;;;;;;1.50;0.90;;;25.60;73.60;;;;;;4925951;29;20508;-82
2023/07/16 08:40:51;;;;;;;1.50;0.90;;;25.70;72.60;;;;;;4922246;29;20503;-86
2023/07/16 08:43:19;;;;;;;1.47;0.80;;;25.80;73.20;;;;;;4923459;29;20570;-80
2023/07/16 08:45:48;;;;;;;1.43;0.80;;;25.90;72.40;;;;;;4927145;29;20475;-81
2023/07/16 08:48:23;;;;;;;1.47;0.80;;;26.00;73.90;;;;;;4924462;29;20484;-83
2023/07/16 08:50:51;;;;;;;2.70;2.50;;;26.20;72.40;;;;;;4924455;29;20489;-82
2023/07/16 08:53:20;;;;;;;1.50;1.00;;;26.40;71.40;;;;;;4924211;29;20492;-81
2023/07/16 08:55:55;;;;;;;1.50;0.90;;;26.50;71.50;;;;;;4925067;29;20478;-83
2023/07/16 08:58:29;;;;;;;1.50;0.80;;;26.60;70.50;;;;;;4925236;29;20491;-82
2023/07/16 09:00:59;;;;;;;1.50;0.80;;;26.60;69.60;;;;;;4924462;29;20832;-81
2023/07/16 09:03:40;;;;;;;1.50;0.90;;;26.70;69.90;;;;;;4925136;29;20649;-79
2023/07/16 09:06:07;;;;;;;1.50;0.80;;;26.80;69.80;;;;;;4920803;29;20546;-82
2023/07/16 09:08:40;;;;;;;1.50;1.13;;;26.90;70.30;;;;;;4925458;29;20480;-81
2023/07/16 09:11:16;;;;;;;1.40;0.80;;;26.90;69.30;;;;;;4922799;29;21625;-81
2023/07/16 09:13:46;;;;;;;1.47;0.90;;;27.00;69.60;;;;;;4926049;29;20467;-81
2023/07/16 09:16:16;;;;;;;1.47;0.80;;;26.90;68.40;;;;;;4917465;29;21417;-80
2023/07/16 09:18:47;;;;;;;1.40;0.83;;;26.70;68.70;;;;;;4923687;29;20492;-81
2023/07/16 09:21:23;;;;;;;1.50;0.87;;;26.60;69.30;;;;;;4922490;29;21001;-82
2023/07/16 09:24:11;;;;;;;;;;;;;;;;;;;;;
2023/07/16 09:26:41;;;;;;;1.40;0.80;;;26.50;69.10;;;;;;4922159;29;20621;-81
2023/07/16 09:29:12;;;;;;;1.40;0.80;;;26.20;70.30;;;;;;4921392;29;20492;-81
2023/07/16 09:31:39;;;;;;;1.40;0.80;;;26.30;70.60;;;;;;4919127;29;20495;-81
2023/07/16 09:34:28;;;;;;;1.50;0.80;;;26.50;70.10;;;;;;4921821;29;21034;-82
2023/07/16 09:36:56;;;;;;;1.40;0.80;;;26.70;69.80;;;;;;4926179;29;20518;-81
2023/07/16 09:39:26;;;;;;;1.40;0.80;;;26.90;69.40;;;;;;4927630;29;20589;-85
2023/07/16 09:41:59;;;;;;;1.40;0.80;;;27.20;69.50;;;;;;4923832;29;20546;-83
2023/07/16 09:44:31;;;;;;;1.40;0.80;;;27.40;69.10;;;;;;4925773;29;21131;-83
2023/07/16 09:46:58;;;;;;;1.50;0.90;;;27.60;69.00;;;;;;4921649;29;20471;-80
2023/07/16 09:49:29;;;;;;;1.43;0.80;;;27.80;67.30;;;;;;4922607;29;20573;-79
2023/07/16 09:52:02;;;;;;;1.47;0.80;;;27.80;67.50;;;;;;4921350;29;20518;-79
2023/07/16 09:54:36;;;;;;;1.47;0.80;;;27.70;68.00;;;;;;4923050;29;20849;-80
2023/07/16 09:57:05;;;;;;;1.50;0.80;;;27.50;68.00;;;;;;4921695;29;20478;-80
2023/07/16 09:59:34;;;;;;;1.50;0.87;;;27.10;68.80;;;;;;4921443;29;21085;-82
2023/07/16 10:02:02;;;;;;;1.47;0.83;;;26.90;69.40;;;;;;4920029;29;20569;-80
2023/07/16 10:04:48;;;;;;;1.40;0.80;;;26.80;69.80;;;;;;4928415;29;20552;-82
2023/07/16 10:07:41;;;;;;;1.43;0.80;;;27.00;70.00;;;;;;4926782;29;20576;-81
2023/07/16 10:10:12;;;;;;;2.13;1.93;;;27.40;70.20;;;;;;4918481;29;20483;-80
2023/07/16 10:12:39;;;;;;;1.40;0.80;;;27.70;69.80;;;;;;4924124;29;20493;-79
2023/07/16 10:15:13;;;;;;;1.43;0.80;;;28.00;69.90;;;;;;4921500;29;20543;-81
2023/07/16 10:17:51;;;;;;;1.50;0.80;;;28.30;68.00;;;;;;4924171;29;20550;-85
2023/07/16 10:20:30;;;;;;;1.47;0.80;;;28.60;66.80;;;;;;4922346;29;20996;-82
2023/07/16 10:26:26;;;;;;;1.50;0.80;;;28.70;67.10;;;;;;4865973;29;20466;-82
2023/07/16 10:28:53;;;;;;;1.43;0.80;;;28.40;66.50;;;;;;4925920;29;20491;-83
2023/07/16 10:31:28;;;;;;;1.47;0.80;;;28.00;66.70;;;;;;4923424;29;20582;-82
2023/07/16 10:34:05;;;;;;;1.40;0.80;;;27.90;68.60;;;;;;4926435;29;20545;-82
2023/07/16 10:36:41;;;;;;;1.40;0.80;;;27.70;67.80;;;;;;4926271;29;20467;-82
2023/07/16 10:39:11;;;;;;;1.40;0.80;;;27.50;69.00;;;;;;4925131;29;20745;-83
2023/07/16 10:41:38;;;;;;;1.43;0.80;;;27.30;68.20;;;;;;4921973;29;20539;-84
2023/07/16 10:44:09;;;;;;;1.47;0.80;;;27.20;67.60;;;;;;4926502;29;20773;-82
2023/07/16 10:46:37;;;;;;;1.43;0.80;;;27.10;67.20;;;;;;4922780;29;20651;-81
2023/07/16 10:49:04;;;;;;;1.50;1.00;;;27.00;67.50;;;;;;4926760;29;20498;-81
2023/07/16 10:51:49;;;;;;;1.47;0.90;;;26.90;68.80;;;;;;4926025;29;20605;-80
2023/07/16 10:54:21;;;;;;;1.50;0.80;;;26.90;68.00;;;;;;4924123;29;20467;-84
2023/07/16 10:59:39;;;;;;;1.43;0.80;;;26.70;68.70;;;;;;4926046;29;20566;-83
2023/07/16 11:02:21;;;;;;;1.40;0.80;;;26.70;68.50;;;;;;4922431;29;20506;-81
2023/07/16 11:04:50;;;;;;;1.50;0.90;;;26.60;68.50;;;;;;4921783;29;20672;-81
2023/07/16 11:07:17;;;;;;;1.40;0.90;;;26.70;68.70;;;;;;4925090;29;20531;-83
2023/07/16 11:09:49;;;;;;;1.40;0.80;;;26.80;68.10;;;;;;4927952;29;21115;-83
2023/07/16 11:12:19;;;;;;;1.40;0.80;;;27.00;68.60;;;;;;4926242;29;20483;-83
2023/07/16 11:14:49;;;;;;;1.50;0.90;;;27.10;68.30;;;;;;4926407;29;20472;-83
2023/07/16 11:17:22;;;;;;;1.50;0.80;;;27.10;68.40;;;;;;4922324;29;20470;-83
2023/07/16 11:19:55;;;;;;;1.47;0.80;;;26.90;69.20;;;;;;4923311;29;20506;-83
2023/07/16 11:25:37;;;;;;;1.50;1.00;;;27.00;68.80;;;;;;4927566;29;20475;-84
2023/07/16 11:28:12;;;;;;;1.43;0.80;;;27.10;68.10;;;;;;4925381;29;20498;-84
2023/07/16 11:30:46;;;;;;;1.50;0.80;;;27.20;68.30;;;;;;4927129;29;20467;-82
2023/07/16 11:33:14;;;;;;;1.43;0.90;;;27.30;68.70;;;;;;4923414;29;21311;-84
2023/07/16 11:35:41;;;;;;;1.47;0.80;;;27.40;67.80;;;;;;4922886;29;20483;-80
2023/07/16 11:38:09;;;;;;;1.40;1.00;;;27.40;68.40;;;;;;4921899;29;20503;-82
2023/07/16 11:40:37;;;;;;;1.43;0.80;;;27.50;67.40;;;;;;4927186;29;20527;-80
2023/07/16 11:43:11;;;;;;;1.90;1.63;;;27.50;67.50;;;;;;4925250;29;20531;-83
2023/07/16 11:45:44;;;;;;;1.47;0.80;;;27.60;67.30;;;;;;4925949;29;20818;-81
2023/07/16 11:48:20;;;;;;;1.43;0.80;;;27.80;66.80;;;;;;4922407;29;20723;-81
2023/07/16 11:50:49;;;;;;;1.43;0.80;;;27.90;66.90;;;;;;4924420;29;20558;-80
2023/07/16 11:53:23;;;;;;;1.40;0.80;;;27.90;66.20;;;;;;4924103;29;20499;-81
2023/07/16 11:55:55;;;;;;;1.47;0.80;;;28.00;66.30;;;;;;4923974;29;20463;-82
2023/07/16 11:58:43;;;;;;;1.50;0.90;;;28.30;66.60;;;;;;4927435;29;20502;-82
2023/07/16 12:01:14;;;;;;;1.40;0.80;;;28.60;64.70;;;;;;4919536;29;20510;-82
2023/07/16 12:03:41;;;;;;;1.47;0.80;;;28.70;64.40;;;;;;4916714;29;20509;-82
2023/07/16 12:06:09;;;;;;;1.43;0.80;;;28.60;65.90;;;;;;4921982;29;20574;-81
2023/07/16 12:08:37;;;;;;;1.93;1.13;;;28.60;64.40;;;;;;4922316;29;20494;-80
2023/07/16 12:11:05;;;;;;;1.50;1.00;;;28.60;65.30;;;;;;4923204;29;20467;-84
2023/07/16 12:13:37;;;;;;;3.40;2.60;;;28.60;65.10;;;;;;4919418;29;21128;-82
2023/07/16 12:16:18;;;;;;;1.47;0.80;;;28.50;65.40;;;;;;4920096;29;20471;-83
2023/07/16 12:18:55;;;;;;;1.40;0.80;;;28.20;65.40;;;;;;4922011;29;20489;-82
2023/07/16 12:21:22;;;;;;;1.50;0.97;;;28.00;64.90;;;;;;4923178;29;20479;-83
2023/07/16 12:23:50;;;;;;;1.50;0.80;;;28.00;65.60;;;;;;4926473;29;20546;-82
2023/07/16 12:26:20;;;;;;;1.47;0.80;;;28.10;67.40;;;;;;4925911;29;20459;-81
2023/07/16 12:28:47;;;;;;;1.47;0.80;;;28.10;66.00;;;;;;4925363;29;20488;-82
2023/07/16 12:31:15;;;;;;;1.50;0.90;;;28.20;66.20;;;;;;4920864;29;20491;-82
2023/07/16 12:33:42;;;;;;;1.47;0.80;;;28.60;65.50;;;;;;4917319;29;20507;-82
2023/07/16 12:36:09;;;;;;;1.43;0.80;;;28.80;65.00;;;;;;4922871;29;21085;-83
2023/07/16 12:38:36;;;;;;;1.47;0.80;;;29.10;64.30;;;;;;4922566;29;20499;-83
2023/07/16 12:41:03;;;;;;;1.43;0.80;;;29.30;63.70;;;;;;4924359;29;20954;-82
2023/07/16 12:43:40;;;;;;;1.47;0.80;;;29.40;63.00;;;;;;4923395;29;20855;-83
2023/07/16 12:46:07;;;;;;;1.47;0.80;;;29.40;62.00;;;;;;4919971;29;20470;-82
2023/07/16 12:48:34;;;;;;;1.47;0.80;;;29.60;63.50;;;;;;4924145;29;20487;-82
2023/07/16 12:51:02;;;;;;;1.50;0.80;;;29.90;62.30;;;;;;4926017;29;20478;-81
2023/07/16 12:53:29;;;;;;;1.47;0.80;;;29.90;61.80;;;;;;4921222;29;20490;-81
2023/07/16 12:55:56;;;;;;;1.43;0.80;;;29.90;61.70;;;;;;4924400;29;20477;-83
2023/07/16 12:58:25;;;;;;;1.47;0.80;;;29.60;61.60;;;;;;4921758;29;20659;-83
2023/07/16 13:00:54;;;;;;;1.43;0.80;;;29.30;62.40;;;;;;4923559;29;20459;-82
2023/07/16 13:03:23;;;;;;;1.40;0.80;;;29.00;63.00;;;;;;4923346;29;20863;-81
2023/07/16 13:05:50;;;;;;;1.43;0.90;;;28.60;63.20;;;;;;4924376;29;20553;-82
2023/07/16 13:08:17;;;;;;;1.47;0.80;;;28.60;64.20;;;;;;4923080;29;20487;-82
2023/07/16 13:10:44;;;;;;;1.50;1.00;;;28.80;63.20;;;;;;4920940;29;20471;-81
2023/07/16 13:13:11;;;;;;;1.43;0.80;;;28.90;63.60;;;;;;4923275;29;20577;-82